sensor_id;sensor_type;location;lat;lon;timestamp;temperature;humidity
67901;DHT22;54700;51.796;10.956;2023-01-19T00:00:52;-2.00;89.50
67901;DHT22;54700;51.796;10.956;2023-01-19T00:03:19;-2.00;90.10
67901;DHT22;54700;51.796;10.956;2023-01-19T00:05:45;-2.20;90.50
67901;DHT22;54700;51.796;10.956;2023-01-19T00:08:12;-2.30;91.00
67901;DHT22;54700;51.796;10.956;2023-01-19T00:10:40;-2.30;91.30
67901;DHT22;54700;51.796;10.956;2023-01-19T00:13:07;-2.40;91.80
67901;DHT22;54700;51.796;10.956;2023-01-19T00:15:33;-2.50;91.80
67901;DHT22;54700;51.796;10.956;2023-01-19T00:18:02;-2.50;91.80
67901;DHT22;54700;51.796;10.956;2023-01-19T00:20:28;-2.50;92.20
67901;DHT22;54700;51.796;10.956;2023-01-19T00:22:57;-2.50;92.70
67901;DHT22;54700;51.796;10.956;2023-01-19T00:25:23;-2.40;92.40
67901;DHT22;54700;51.796;10.956;2023-01-19T00:27:50;-2.30;92.60
67901;DHT22;54700;51.796;10.956;2023-01-19T00:30:17;-2.20;92.80
67901;DHT22;54700;51.796;10.956;2023-01-19T00:32:44;-1.90;92.00
67901;DHT22;54700;51.796;10.956;2023-01-19T00:35:12;-1.70;91.20
67901;DHT22;54700;51.796;10.956;2023-01-19T00:37:39;-1.50;90.20
67901;DHT22;54700;51.796;10.956;2023-01-19T00:40:10;-1.30;88.60
67901;DHT22;54700;51.796;10.956;2023-01-19T00:42:38;-1.20;87.70
67901;DHT22;54700;51.796;10.956;2023-01-19T00:45:04;-1.20;87.30
67901;DHT22;54700;51.796;10.956;2023-01-19T00:47:32;-1.20;86.80
67901;DHT22;54700;51.796;10.956;2023-01-19T00:49:58;-1.20;86.50
67901;DHT22;54700;51.796;10.956;2023-01-19T00:52:26;-1.20;86.30
67901;DHT22;54700;51.796;10.956;2023-01-19T00:54:53;-1.20;86.50
67901;DHT22;54700;51.796;10.956;2023-01-19T00:57:20;-1.30;86.50
67901;DHT22;54700;51.796;10.956;2023-01-19T00:59:47;-1.30;87.00
67901;DHT22;54700;51.796;10.956;2023-01-19T01:02:14;-1.30;87.30
67901;DHT22;54700;51.796;10.956;2023-01-19T01:04:41;-1.30;87.40
67901;DHT22;54700;51.796;10.956;2023-01-19T01:07:07;-1.30;87.70
67901;DHT22;54700;51.796;10.956;2023-01-19T01:09:35;-1.30;87.70
67901;DHT22;54700;51.796;10.956;2023-01-19T01:12:02;-1.30;87.40
67901;DHT22;54700;51.796;10.956;2023-01-19T01:14:29;-1.30;87.70
67901;DHT22;54700;51.796;10.956;2023-01-19T01:16:56;-1.20;87.60
67901;DHT22;54700;51.796;10.956;2023-01-19T01:19:23;-1.20;87.30
67901;DHT22;54700;51.796;10.956;2023-01-19T01:21:49;-1.20;87.60
67901;DHT22;54700;51.796;10.956;2023-01-19T01:24:16;-1.20;87.60
67901;DHT22;54700;51.796;10.956;2023-01-19T01:26:44;-1.20;87.60
67901;DHT22;54700;51.796;10.956;2023-01-19T01:29:11;-1.20;87.80
67901;DHT22;54700;51.796;10.956;2023-01-19T01:31:38;-1.20;88.50
67901;DHT22;54700;51.796;10.956;2023-01-19T01:34:04;-1.20;87.50
67901;DHT22;54700;51.796;10.956;2023-01-19T01:36:31;-1.20;87.70
67901;DHT22;54700;51.796;10.956;2023-01-19T01:38:58;-1.20;87.80
67901;DHT22;54700;51.796;10.956;2023-01-19T01:41:25;-1.20;87.40
67901;DHT22;54700;51.796;10.956;2023-01-19T01:43:54;-1.20;87.70
67901;DHT22;54700;51.796;10.956;2023-01-19T01:46:25;-1.20;87.60
67901;DHT22;54700;51.796;10.956;2023-01-19T01:48:54;-1.20;87.80
67901;DHT22;54700;51.796;10.956;2023-01-19T01:51:30;-1.20;87.90
67901;DHT22;54700;51.796;10.956;2023-01-19T01:54:05;-1.10;88.50
67901;DHT22;54700;51.796;10.956;2023-01-19T01:56:41;-1.00;87.10
67901;DHT22;54700;51.796;10.956;2023-01-19T01:59:12;-0.90;86.30
67901;DHT22;54700;51.796;10.956;2023-01-19T02:01:50;-0.80;85.40
67901;DHT22;54700;51.796;10.956;2023-01-19T02:04:36;-0.70;84.70
67901;DHT22;54700;51.796;10.956;2023-01-19T02:07:03;-0.70;84.50
67901;DHT22;54700;51.796;10.956;2023-01-19T02:09:47;-0.70;84.40
67901;DHT22;54700;51.796;10.956;2023-01-19T02:12:31;-0.70;84.10
67901;DHT22;54700;51.796;10.956;2023-01-19T02:15:18;-0.70;84.40
67901;DHT22;54700;51.796;10.956;2023-01-19T02:17:45;-0.70;84.30
67901;DHT22;54700;51.796;10.956;2023-01-19T02:20:15;-0.80;84.80
67901;DHT22;54700;51.796;10.956;2023-01-19T02:22:44;-0.80;84.40
67901;DHT22;54700;51.796;10.956;2023-01-19T02:25:15;-0.80;84.60
67901;DHT22;54700;51.796;10.956;2023-01-19T02:27:44;-0.80;84.40
67901;DHT22;54700;51.796;10.956;2023-01-19T02:30:11;-0.80;84.60
67901;DHT22;54700;51.796;10.956;2023-01-19T02:32:40;-0.80;85.00
67901;DHT22;54700;51.796;10.956;2023-01-19T02:35:08;-0.80;85.20
67901;DHT22;54700;51.796;10.956;2023-01-19T02:37:35;-0.80;85.20
67901;DHT22;54700;51.796;10.956;2023-01-19T02:40:06;-0.80;85.20
67901;DHT22;54700;51.796;10.956;2023-01-19T02:42:39;-0.80;85.10
67901;DHT22;54700;51.796;10.956;2023-01-19T02:45:10;-0.70;84.80
67901;DHT22;54700;51.796;10.956;2023-01-19T02:47:38;-0.80;85.00
67901;DHT22;54700;51.796;10.956;2023-01-19T02:53:18;-0.80;85.20
67901;DHT22;54700;51.796;10.956;2023-01-19T02:55:54;-0.80;85.40
67901;DHT22;54700;51.796;10.956;2023-01-19T02:58:28;-0.80;85.50
67901;DHT22;54700;51.796;10.956;2023-01-19T03:01:03;-0.90;85.80
67901;DHT22;54700;51.796;10.956;2023-01-19T03:03:38;-1.00;86.40
67901;DHT22;54700;51.796;10.956;2023-01-19T03:06:15;-1.00;86.70
67901;DHT22;54700;51.796;10.956;2023-01-19T03:08:51;-1.10;87.10
67901;DHT22;54700;51.796;10.956;2023-01-19T03:11:21;-1.10;87.80
67901;DHT22;54700;51.796;10.956;2023-01-19T03:13:55;-1.10;88.30
67901;DHT22;54700;51.796;10.956;2023-01-19T03:16:27;-1.20;88.40
67901;DHT22;54700;51.796;10.956;2023-01-19T03:19:01;-1.20;88.60
67901;DHT22;54700;51.796;10.956;2023-01-19T03:21:32;-1.20;88.70
67901;DHT22;54700;51.796;10.956;2023-01-19T03:24:01;-1.20;89.50
67901;DHT22;54700;51.796;10.956;2023-01-19T03:26:35;-1.20;90.10
67901;DHT22;54700;51.796;10.956;2023-01-19T03:29:07;-1.20;89.90
67901;DHT22;54700;51.796;10.956;2023-01-19T03:31:35;-1.10;89.70
67901;DHT22;54700;51.796;10.956;2023-01-19T03:34:05;-1.10;89.20
67901;DHT22;54700;51.796;10.956;2023-01-19T03:36:36;-1.00;88.90
67901;DHT22;54700;51.796;10.956;2023-01-19T03:39:08;-0.90;87.90
67901;DHT22;54700;51.796;10.956;2023-01-19T03:41:37;-0.90;87.20
67901;DHT22;54700;51.796;10.956;2023-01-19T03:44:08;-0.90;87.10
67901;DHT22;54700;51.796;10.956;2023-01-19T03:46:36;-0.90;87.70
67901;DHT22;54700;51.796;10.956;2023-01-19T03:49:04;-1.00;87.90
67901;DHT22;54700;51.796;10.956;2023-01-19T03:51:33;-1.00;88.30
67901;DHT22;54700;51.796;10.956;2023-01-19T03:54:01;-1.00;88.70
67901;DHT22;54700;51.796;10.956;2023-01-19T03:56:28;-1.00;88.90
67901;DHT22;54700;51.796;10.956;2023-01-19T03:58:55;-1.00;89.30
67901;DHT22;54700;51.796;10.956;2023-01-19T04:01:23;-1.00;89.30
67901;DHT22;54700;51.796;10.956;2023-01-19T04:03:50;-0.90;89.30
67901;DHT22;54700;51.796;10.956;2023-01-19T04:06:18;-0.80;88.50
67901;DHT22;54700;51.796;10.956;2023-01-19T04:08:46;-0.80;88.10
67901;DHT22;54700;51.796;10.956;2023-01-19T04:11:14;-0.70;87.80
67901;DHT22;54700;51.796;10.956;2023-01-19T04:13:40;-0.70;87.60
67901;DHT22;54700;51.796;10.956;2023-01-19T04:16:08;-0.60;87.40
67901;DHT22;54700;51.796;10.956;2023-01-19T04:18:37;-0.60;87.20
67901;DHT22;54700;51.796;10.956;2023-01-19T04:21:06;-0.60;86.90
67901;DHT22;54700;51.796;10.956;2023-01-19T04:23:33;-0.60;86.60
67901;DHT22;54700;51.796;10.956;2023-01-19T04:26:01;-0.60;87.00
67901;DHT22;54700;51.796;10.956;2023-01-19T04:28:31;-0.60;87.30
67901;DHT22;54700;51.796;10.956;2023-01-19T04:31:01;-0.50;87.00
67901;DHT22;54700;51.796;10.956;2023-01-19T04:33:28;-0.40;86.10
67901;DHT22;54700;51.796;10.956;2023-01-19T04:35:57;-0.40;85.70
67901;DHT22;54700;51.796;10.956;2023-01-19T04:38:24;-0.30;85.60
67901;DHT22;54700;51.796;10.956;2023-01-19T04:40:52;-0.30;85.30
67901;DHT22;54700;51.796;10.956;2023-01-19T04:43:19;-0.30;85.00
67901;DHT22;54700;51.796;10.956;2023-01-19T04:45:47;-0.20;84.70
67901;DHT22;54700;51.796;10.956;2023-01-19T04:48:14;-0.20;84.40
67901;DHT22;54700;51.796;10.956;2023-01-19T04:50:44;-0.20;84.20
67901;DHT22;54700;51.796;10.956;2023-01-19T04:53:12;-0.10;84.10
67901;DHT22;54700;51.796;10.956;2023-01-19T04:55:40;-0.10;83.70
67901;DHT22;54700;51.796;10.956;2023-01-19T04:58:07;-0.10;83.30
67901;DHT22;54700;51.796;10.956;2023-01-19T05:00:34;0.00;82.70
67901;DHT22;54700;51.796;10.956;2023-01-19T05:03:02;0.00;82.90
67901;DHT22;54700;51.796;10.956;2023-01-19T05:05:28;0.10;82.60
67901;DHT22;54700;51.796;10.956;2023-01-19T05:07:57;0.20;81.90
67901;DHT22;54700;51.796;10.956;2023-01-19T05:10:28;0.20;81.80
67901;DHT22;54700;51.796;10.956;2023-01-19T05:12:55;0.20;81.60
67901;DHT22;54700;51.796;10.956;2023-01-19T05:15:22;0.10;81.60
67901;DHT22;54700;51.796;10.956;2023-01-19T05:17:49;0.10;81.90
67901;DHT22;54700;51.796;10.956;2023-01-19T05:20:16;0.10;82.00
67901;DHT22;54700;51.796;10.956;2023-01-19T05:22:47;0.00;82.40
67901;DHT22;54700;51.796;10.956;2023-01-19T05:25:14;0.00;82.80
67901;DHT22;54700;51.796;10.956;2023-01-19T05:27:42;-0.10;83.10
67901;DHT22;54700;51.796;10.956;2023-01-19T05:30:09;-0.10;83.40
67901;DHT22;54700;51.796;10.956;2023-01-19T05:32:37;-0.20;83.90
67901;DHT22;54700;51.796;10.956;2023-01-19T05:35:04;-0.30;84.20
67901;DHT22;54700;51.796;10.956;2023-01-19T05:37:32;-0.30;84.80
67901;DHT22;54700;51.796;10.956;2023-01-19T05:39:58;-0.30;85.20
67901;DHT22;54700;51.796;10.956;2023-01-19T05:42:28;-0.30;85.50
67901;DHT22;54700;51.796;10.956;2023-01-19T05:44:56;-0.30;85.40
67901;DHT22;54700;51.796;10.956;2023-01-19T05:47:23;-0.30;85.30
67901;DHT22;54700;51.796;10.956;2023-01-19T05:49:50;-0.30;84.70
67901;DHT22;54700;51.796;10.956;2023-01-19T05:52:20;-0.20;84.50
67901;DHT22;54700;51.796;10.956;2023-01-19T05:54:49;-0.30;84.60
67901;DHT22;54700;51.796;10.956;2023-01-19T05:57:16;-0.30;84.80
67901;DHT22;54700;51.796;10.956;2023-01-19T05:59:43;-0.30;84.80
67901;DHT22;54700;51.796;10.956;2023-01-19T06:02:11;-0.30;85.10
67901;DHT22;54700;51.796;10.956;2023-01-19T06:04:44;0.00;88.70
67901;DHT22;54700;51.796;10.956;2023-01-19T06:07:11;0.10;89.20
67901;DHT22;54700;51.796;10.956;2023-01-19T06:09:41;0.00;83.90
67901;DHT22;54700;51.796;10.956;2023-01-19T06:12:15;-0.10;84.00
67901;DHT22;54700;51.796;10.956;2023-01-19T06:14:42;-0.20;85.10
67901;DHT22;54700;51.796;10.956;2023-01-19T06:17:08;-0.30;86.30
67901;DHT22;54700;51.796;10.956;2023-01-19T06:19:37;-0.30;87.10
67901;DHT22;54700;51.796;10.956;2023-01-19T06:22:04;-0.40;87.50
67901;DHT22;54700;51.796;10.956;2023-01-19T06:24:31;-0.40;87.80
67901;DHT22;54700;51.796;10.956;2023-01-19T06:27:00;-0.40;88.50
67901;DHT22;54700;51.796;10.956;2023-01-19T06:29:27;-0.40;88.30
67901;DHT22;54700;51.796;10.956;2023-01-19T06:31:54;-0.50;88.60
67901;DHT22;54700;51.796;10.956;2023-01-19T06:34:21;-0.50;88.90
67901;DHT22;54700;51.796;10.956;2023-01-19T06:36:52;-0.50;89.20
67901;DHT22;54700;51.796;10.956;2023-01-19T06:39:22;-0.50;89.60
67901;DHT22;54700;51.796;10.956;2023-01-19T06:41:49;-0.50;89.50
67901;DHT22;54700;51.796;10.956;2023-01-19T06:44:16;-0.50;89.80
67901;DHT22;54700;51.796;10.956;2023-01-19T06:46:45;-0.50;89.80
67901;DHT22;54700;51.796;10.956;2023-01-19T06:49:29;-0.40;90.00
67901;DHT22;54700;51.796;10.956;2023-01-19T06:52:18;-0.40;89.00
67901;DHT22;54700;51.796;10.956;2023-01-19T06:58:49;-0.30;87.90
67901;DHT22;54700;51.796;10.956;2023-01-19T07:38:11;-0.60;91.00
67901;DHT22;54700;51.796;10.956;2023-01-19T07:40:44;-0.60;91.20
67901;DHT22;54700;51.796;10.956;2023-01-19T07:43:20;-0.60;91.20
67901;DHT22;54700;51.796;10.956;2023-01-19T07:45:58;-0.60;91.20
67901;DHT22;54700;51.796;10.956;2023-01-19T07:51:49;-0.50;91.20
67901;DHT22;54700;51.796;10.956;2023-01-19T07:54:23;-0.50;91.10
67901;DHT22;54700;51.796;10.956;2023-01-19T07:57:14;-0.50;91.00
67901;DHT22;54700;51.796;10.956;2023-01-19T07:59:41;-0.50;91.00
67901;DHT22;54700;51.796;10.956;2023-01-19T08:05:09;-0.50;90.90
67901;DHT22;54700;51.796;10.956;2023-01-19T08:08:07;-0.40;90.90
67901;DHT22;54700;51.796;10.956;2023-01-19T08:10:39;-0.40;90.80
67901;DHT22;54700;51.796;10.956;2023-01-19T08:13:10;-0.40;90.90
67901;DHT22;54700;51.796;10.956;2023-01-19T08:15:37;-0.40;90.80
67901;DHT22;54700;51.796;10.956;2023-01-19T08:18:10;-0.30;90.60
67901;DHT22;54700;51.796;10.956;2023-01-19T08:20:48;-0.30;90.50
67901;DHT22;54700;51.796;10.956;2023-01-19T08:23:16;-0.30;90.50
67901;DHT22;54700;51.796;10.956;2023-01-19T08:25:56;-0.30;90.40
67901;DHT22;54700;51.796;10.956;2023-01-19T08:28:28;-0.20;90.20
67901;DHT22;54700;51.796;10.956;2023-01-19T08:30:58;-0.10;90.00
67901;DHT22;54700;51.796;10.956;2023-01-19T08:33:28;-0.10;88.90
67901;DHT22;54700;51.796;10.956;2023-01-19T08:36:09;0.00;88.20
67901;DHT22;54700;51.796;10.956;2023-01-19T08:45:38;0.20;86.40
67901;DHT22;54700;51.796;10.956;2023-01-19T08:57:58;0.30;85.60
67901;DHT22;54700;51.796;10.956;2023-01-19T09:00:27;0.30;84.60
67901;DHT22;54700;51.796;10.956;2023-01-19T09:02:58;0.40;84.80
67901;DHT22;54700;51.796;10.956;2023-01-19T09:05:37;0.40;84.70
67901;DHT22;54700;51.796;10.956;2023-01-19T09:08:12;0.30;84.60
67901;DHT22;54700;51.796;10.956;2023-01-19T09:11:00;0.40;84.60
67901;DHT22;54700;51.796;10.956;2023-01-19T09:13:41;0.40;84.30
67901;DHT22;54700;51.796;10.956;2023-01-19T09:16:34;0.40;83.90
67901;DHT22;54700;51.796;10.956;2023-01-19T09:19:03;0.50;84.20
67901;DHT22;54700;51.796;10.956;2023-01-19T09:21:35;0.50;83.90
67901;DHT22;54700;51.796;10.956;2023-01-19T09:29:36;0.60;83.10
67901;DHT22;54700;51.796;10.956;2023-01-19T09:32:24;0.70;82.80
67901;DHT22;54700;51.796;10.956;2023-01-19T09:34:57;0.70;82.70
67901;DHT22;54700;51.796;10.956;2023-01-19T09:37:33;0.70;82.60
67901;DHT22;54700;51.796;10.956;2023-01-19T09:40:08;0.80;83.00
67901;DHT22;54700;51.796;10.956;2023-01-19T09:42:47;0.80;81.80
67901;DHT22;54700;51.796;10.956;2023-01-19T09:45:26;0.90;81.40
67901;DHT22;54700;51.796;10.956;2023-01-19T09:48:04;1.10;81.20
67901;DHT22;54700;51.796;10.956;2023-01-19T09:50:48;1.20;80.50
67901;DHT22;54700;51.796;10.956;2023-01-19T09:57:21;1.50;79.60
67901;DHT22;54700;51.796;10.956;2023-01-19T10:10:16;1.90;76.20
67901;DHT22;54700;51.796;10.956;2023-01-19T10:13:13;2.10;76.60
67901;DHT22;54700;51.796;10.956;2023-01-19T10:16:14;2.10;74.40
67901;DHT22;54700;51.796;10.956;2023-01-19T10:19:19;2.10;75.40
67901;DHT22;54700;51.796;10.956;2023-01-19T10:25:16;2.20;74.80
67901;DHT22;54700;51.796;10.956;2023-01-19T10:28:29;2.20;75.10
67901;DHT22;54700;51.796;10.956;2023-01-19T10:31:34;2.10;75.40
67901;DHT22;54700;51.796;10.956;2023-01-19T10:34:23;2.10;75.60
67901;DHT22;54700;51.796;10.956;2023-01-19T10:37:29;2.00;75.40
67901;DHT22;54700;51.796;10.956;2023-01-19T10:40:12;2.00;75.30
67901;DHT22;54700;51.796;10.956;2023-01-19T10:46:24;2.10;76.30
67901;DHT22;54700;51.796;10.956;2023-01-19T10:49:01;2.10;75.10
67901;DHT22;54700;51.796;10.956;2023-01-19T10:51:48;2.10;75.40
67901;DHT22;54700;51.796;10.956;2023-01-19T10:54:15;2.10;75.30
67901;DHT22;54700;51.796;10.956;2023-01-19T10:56:43;2.00;75.60
67901;DHT22;54700;51.796;10.956;2023-01-19T10:59:32;2.10;75.70
67901;DHT22;54700;51.796;10.956;2023-01-19T11:02:12;2.10;75.70
67901;DHT22;54700;51.796;10.956;2023-01-19T11:04:46;2.30;76.20
67901;DHT22;54700;51.796;10.956;2023-01-19T11:07:26;2.30;75.40
67901;DHT22;54700;51.796;10.956;2023-01-19T11:10:20;2.40;75.70
67901;DHT22;54700;51.796;10.956;2023-01-19T11:12:56;2.40;75.80
67901;DHT22;54700;51.796;10.956;2023-01-19T11:15:35;2.30;75.70
67901;DHT22;54700;51.796;10.956;2023-01-19T11:18:21;2.30;75.70
67901;DHT22;54700;51.796;10.956;2023-01-19T11:20:57;2.30;76.10
67901;DHT22;54700;51.796;10.956;2023-01-19T11:23:35;2.30;77.70
67901;DHT22;54700;51.796;10.956;2023-01-19T11:26:07;2.30;77.70
67901;DHT22;54700;51.796;10.956;2023-01-19T11:28:48;2.20;78.50
67901;DHT22;54700;51.796;10.956;2023-01-19T11:31:18;2.20;79.50
67901;DHT22;54700;51.796;10.956;2023-01-19T11:33:56;2.20;79.80
67901;DHT22;54700;51.796;10.956;2023-01-19T11:36:25;2.10;79.50
67901;DHT22;54700;51.796;10.956;2023-01-19T11:38:55;2.10;79.90
67901;DHT22;54700;51.796;10.956;2023-01-19T11:41:25;2.00;80.10
67901;DHT22;54700;51.796;10.956;2023-01-19T11:43:58;2.00;80.50
67901;DHT22;54700;51.796;10.956;2023-01-19T11:46:37;1.90;80.70
67901;DHT22;54700;51.796;10.956;2023-01-19T11:49:07;1.90;81.10
67901;DHT22;54700;51.796;10.956;2023-01-19T11:51:48;1.90;81.60
67901;DHT22;54700;51.796;10.956;2023-01-19T11:54:28;1.90;82.20
67901;DHT22;54700;51.796;10.956;2023-01-19T11:57:00;1.90;82.80
67901;DHT22;54700;51.796;10.956;2023-01-19T11:59:29;1.90;82.60
67901;DHT22;54700;51.796;10.956;2023-01-19T12:01:57;1.90;82.50
67901;DHT22;54700;51.796;10.956;2023-01-19T12:04:27;2.00;83.10
67901;DHT22;54700;51.796;10.956;2023-01-19T12:07:02;2.10;82.40
67901;DHT22;54700;51.796;10.956;2023-01-19T12:09:37;2.20;81.30
67901;DHT22;54700;51.796;10.956;2023-01-19T12:12:10;2.30;81.30
67901;DHT22;54700;51.796;10.956;2023-01-19T12:14:51;2.40;81.00
67901;DHT22;54700;51.796;10.956;2023-01-19T12:17:25;2.40;80.10
67901;DHT22;54700;51.796;10.956;2023-01-19T12:19:56;2.40;79.60
67901;DHT22;54700;51.796;10.956;2023-01-19T12:22:30;2.50;79.60
67901;DHT22;54700;51.796;10.956;2023-01-19T12:25:05;2.40;78.60
67901;DHT22;54700;51.796;10.956;2023-01-19T12:27:42;2.40;79.00
67901;DHT22;54700;51.796;10.956;2023-01-19T12:30:15;2.40;78.80
67901;DHT22;54700;51.796;10.956;2023-01-19T12:33:05;2.30;79.40
67901;DHT22;54700;51.796;10.956;2023-01-19T12:35:55;2.30;79.60
67901;DHT22;54700;51.796;10.956;2023-01-19T12:41:19;2.30;80.90
67901;DHT22;54700;51.796;10.956;2023-01-19T12:46:49;2.30;80.50
67901;DHT22;54700;51.796;10.956;2023-01-19T12:49:23;2.40;81.20
67901;DHT22;54700;51.796;10.956;2023-01-19T12:52:09;2.30;80.30
67901;DHT22;54700;51.796;10.956;2023-01-19T12:54:49;2.20;81.10
67901;DHT22;54700;51.796;10.956;2023-01-19T12:57:23;2.20;81.90
67901;DHT22;54700;51.796;10.956;2023-01-19T12:59:56;2.10;81.50
67901;DHT22;54700;51.796;10.956;2023-01-19T13:02:29;2.10;81.50
67901;DHT22;54700;51.796;10.956;2023-01-19T13:05:16;2.10;82.30
67901;DHT22;54700;51.796;10.956;2023-01-19T13:20:26;2.00;84.80
67901;DHT22;54700;51.796;10.956;2023-01-19T13:26:54;2.00;84.90
67901;DHT22;54700;51.796;10.956;2023-01-19T13:29:53;2.00;84.20
67901;DHT22;54700;51.796;10.956;2023-01-19T13:32:48;2.00;84.50
67901;DHT22;54700;51.796;10.956;2023-01-19T13:39:16;2.00;84.80
67901;DHT22;54700;51.796;10.956;2023-01-19T13:42:22;2.00;85.10
67901;DHT22;54700;51.796;10.956;2023-01-19T13:45:27;2.00;85.50
67901;DHT22;54700;51.796;10.956;2023-01-19T13:48:18;2.00;84.50
67901;DHT22;54700;51.796;10.956;2023-01-19T13:51:04;2.10;84.10
67901;DHT22;54700;51.796;10.956;2023-01-19T13:53:53;2.10;84.10
67901;DHT22;54700;51.796;10.956;2023-01-19T13:56:33;2.10;83.50
67901;DHT22;54700;51.796;10.956;2023-01-19T13:59:13;2.10;83.70
67901;DHT22;54700;51.796;10.956;2023-01-19T14:05:21;2.00;84.00
67901;DHT22;54700;51.796;10.956;2023-01-19T14:18:44;2.00;84.20
67901;DHT22;54700;51.796;10.956;2023-01-19T14:21:11;2.00;84.50
67901;DHT22;54700;51.796;10.956;2023-01-19T14:24:05;2.10;84.60
67901;DHT22;54700;51.796;10.956;2023-01-19T14:26:38;2.10;83.90
67901;DHT22;54700;51.796;10.956;2023-01-19T14:29:21;2.10;83.80
67901;DHT22;54700;51.796;10.956;2023-01-19T14:31:50;2.20;83.90
67901;DHT22;54700;51.796;10.956;2023-01-19T14:34:34;2.20;84.80
67901;DHT22;54700;51.796;10.956;2023-01-19T14:37:04;2.10;88.20
67901;DHT22;54700;51.796;10.956;2023-01-19T14:39:42;1.90;92.30
67901;DHT22;54700;51.796;10.956;2023-01-19T14:42:12;1.80;93.60
67901;DHT22;54700;51.796;10.956;2023-01-19T14:44:44;1.70;94.50
67901;DHT22;54700;51.796;10.956;2023-01-19T14:47:20;1.50;95.00
67901;DHT22;54700;51.796;10.956;2023-01-19T14:49:53;1.50;95.40
67901;DHT22;54700;51.796;10.956;2023-01-19T14:52:24;1.50;95.50
67901;DHT22;54700;51.796;10.956;2023-01-19T14:54:54;1.50;95.40
67901;DHT22;54700;51.796;10.956;2023-01-19T14:57:22;1.50;95.80
67901;DHT22;54700;51.796;10.956;2023-01-19T14:59:49;1.50;96.50
67901;DHT22;54700;51.796;10.956;2023-01-19T15:02:17;1.40;97.00
67901;DHT22;54700;51.796;10.956;2023-01-19T15:04:44;1.30;97.90
67901;DHT22;54700;51.796;10.956;2023-01-19T15:07:15;1.30;98.60
67901;DHT22;54700;51.796;10.956;2023-01-19T15:09:44;1.30;99.70
67901;DHT22;54700;51.796;10.956;2023-01-19T15:12:12;1.10;99.90
67901;DHT22;54700;51.796;10.956;2023-01-19T15:14:41;1.10;99.90
67901;DHT22;54700;51.796;10.956;2023-01-19T15:17:09;1.00;99.90
67901;DHT22;54700;51.796;10.956;2023-01-19T15:19:41;0.90;99.90
67901;DHT22;54700;51.796;10.956;2023-01-19T15:22:09;0.90;99.90
67901;DHT22;54700;51.796;10.956;2023-01-19T15:24:38;0.90;99.90
67901;DHT22;54700;51.796;10.956;2023-01-19T15:27:07;0.90;99.90
67901;DHT22;54700;51.796;10.956;2023-01-19T15:29:36;0.90;99.90
67901;DHT22;54700;51.796;10.956;2023-01-19T15:32:05;0.90;99.90
67901;DHT22;54700;51.796;10.956;2023-01-19T15:34:36;0.90;99.90
67901;DHT22;54700;51.796;10.956;2023-01-19T15:37:03;1.00;99.90
67901;DHT22;54700;51.796;10.956;2023-01-19T15:39:29;1.00;99.90
67901;DHT22;54700;51.796;10.956;2023-01-19T15:41:58;1.00;99.90
67901;DHT22;54700;51.796;10.956;2023-01-19T15:44:24;1.00;99.90
67901;DHT22;54700;51.796;10.956;2023-01-19T15:46:54;1.00;99.90
67901;DHT22;54700;51.796;10.956;2023-01-19T15:49:21;1.00;99.90
67901;DHT22;54700;51.796;10.956;2023-01-19T15:51:48;1.00;99.90
67901;DHT22;54700;51.796;10.956;2023-01-19T15:54:15;1.00;99.90
67901;DHT22;54700;51.796;10.956;2023-01-19T15:56:42;1.10;99.90
67901;DHT22;54700;51.796;10.956;2023-01-19T15:59:10;1.10;99.90
67901;DHT22;54700;51.796;10.956;2023-01-19T16:01:37;1.10;99.90
67901;DHT22;54700;51.796;10.956;2023-01-19T16:04:08;1.10;99.90
67901;DHT22;54700;51.796;10.956;2023-01-19T16:06:36;1.20;99.90
67901;DHT22;54700;51.796;10.956;2023-01-19T16:09:03;1.20;99.90
67901;DHT22;54700;51.796;10.956;2023-01-19T16:11:31;1.20;99.90
67901;DHT22;54700;51.796;10.956;2023-01-19T16:13:59;1.20;99.90
67901;DHT22;54700;51.796;10.956;2023-01-19T16:16:27;1.20;99.90
67901;DHT22;54700;51.796;10.956;2023-01-19T16:18:56;1.30;99.50
67901;DHT22;54700;51.796;10.956;2023-01-19T16:21:23;1.30;99.30
67901;DHT22;54700;51.796;10.956;2023-01-19T16:23:50;1.30;99.20
67901;DHT22;54700;51.796;10.956;2023-01-19T16:26:28;1.30;99.30
67901;DHT22;54700;51.796;10.956;2023-01-19T16:28:57;1.30;99.80
67901;DHT22;54700;51.796;10.956;2023-01-19T16:31:24;1.30;99.90
67901;DHT22;54700;51.796;10.956;2023-01-19T16:33:53;1.30;99.90
67901;DHT22;54700;51.796;10.956;2023-01-19T16:36:24;1.30;99.90
67901;DHT22;54700;51.796;10.956;2023-01-19T16:38:51;1.30;99.90
67901;DHT22;54700;51.796;10.956;2023-01-19T16:41:19;1.40;99.90
67901;DHT22;54700;51.796;10.956;2023-01-19T16:43:48;1.40;99.90
67901;DHT22;54700;51.796;10.956;2023-01-19T16:46:17;1.40;99.90
67901;DHT22;54700;51.796;10.956;2023-01-19T16:48:47;1.40;99.90
67901;DHT22;54700;51.796;10.956;2023-01-19T16:51:15;1.40;99.90
67901;DHT22;54700;51.796;10.956;2023-01-19T16:53:42;1.40;99.90
67901;DHT22;54700;51.796;10.956;2023-01-19T16:56:10;1.40;99.90
67901;DHT22;54700;51.796;10.956;2023-01-19T16:58:38;1.50;99.90
67901;DHT22;54700;51.796;10.956;2023-01-19T17:01:06;1.50;99.90
67901;DHT22;54700;51.796;10.956;2023-01-19T17:03:34;1.40;99.90
67901;DHT22;54700;51.796;10.956;2023-01-19T17:06:02;1.40;99.70
67901;DHT22;54700;51.796;10.956;2023-01-19T17:08:31;1.40;99.50
67901;DHT22;54700;51.796;10.956;2023-01-19T17:10:58;1.40;99.80
67901;DHT22;54700;51.796;10.956;2023-01-19T17:13:27;1.40;99.60
67901;DHT22;54700;51.796;10.956;2023-01-19T17:15:58;1.30;99.90
67901;DHT22;54700;51.796;10.956;2023-01-19T17:18:26;1.30;99.50
67901;DHT22;54700;51.796;10.956;2023-01-19T17:20:53;1.30;99.20
67901;DHT22;54700;51.796;10.956;2023-01-19T17:23:20;1.30;99.10
67901;DHT22;54700;51.796;10.956;2023-01-19T17:25:52;1.30;98.70
67901;DHT22;54700;51.796;10.956;2023-01-19T17:28:19;1.30;98.80
67901;DHT22;54700;51.796;10.956;2023-01-19T17:30:47;1.30;98.90
67901;DHT22;54700;51.796;10.956;2023-01-19T17:33:18;1.30;99.00
67901;DHT22;54700;51.796;10.956;2023-01-19T17:35:46;1.30;99.00
67901;DHT22;54700;51.796;10.956;2023-01-19T17:38:14;1.20;98.80
67901;DHT22;54700;51.796;10.956;2023-01-19T17:40:41;1.20;98.80
67901;DHT22;54700;51.796;10.956;2023-01-19T17:43:12;1.20;98.40
67901;DHT22;54700;51.796;10.956;2023-01-19T17:45:39;1.20;98.50
67901;DHT22;54700;51.796;10.956;2023-01-19T17:48:08;1.10;98.80
67901;DHT22;54700;51.796;10.956;2023-01-19T17:50:37;1.10;98.80
67901;DHT22;54700;51.796;10.956;2023-01-19T17:53:07;1.20;98.40
67901;DHT22;54700;51.796;10.956;2023-01-19T17:55:34;1.20;98.40
67901;DHT22;54700;51.796;10.956;2023-01-19T17:58:01;1.20;97.90
67901;DHT22;54700;51.796;10.956;2023-01-19T18:00:30;1.20;98.00
67901;DHT22;54700;51.796;10.956;2023-01-19T18:02:57;1.10;98.20
67901;DHT22;54700;51.796;10.956;2023-01-19T18:05:26;1.10;96.90
67901;DHT22;54700;51.796;10.956;2023-01-19T18:07:53;1.00;96.40
67901;DHT22;54700;51.796;10.956;2023-01-19T18:10:20;1.00;95.70